Time;durP1;ratioP1;P1;durP2;ratioP2;P2;SDS_P1;SDS_P2;PMS_P1;PMS_P2;Temp;Humidity;BMP_temperature;BMP_pressure;BME280_temperature;BME280_humidity;BME280_pressure;Samples;Min_cycle;Max_cycle;Signal;HPM_P1;HPM_P2
2020/12/06 00:01:44;;;;;;;19.38;12.63;;;;;;;5.17;69.64;98525.56;5037036;28;20042;-88
2020/12/06 00:04:10;;;;;;;19.05;12.13;;;;;;;5.15;69.56;98536.06;5038399;28;20050;-86
2020/12/06 00:06:37;;;;;;;20.33;12.32;;;;;;;5.14;69.32;98543.97;5036489;28;20072;-87
2020/12/06 00:09:09;;;;;;;19.40;12.23;;;;;;;5.09;68.96;98558.09;5038098;28;20397;-88
2020/12/06 00:11:36;;;;;;;20.00;12.27;;;;;;;5.09;69.45;98552.88;5036079;28;20049;-87
2020/12/06 00:14:02;;;;;;;20.17;12.68;;;;;;;5.09;69.87;98534.63;5036586;28;20053;-87
2020/12/06 00:16:30;;;;;;;21.70;13.05;;;;;;;5.07;69.51;98526.06;5037156;28;20053;-87
2020/12/06 00:18:56;;;;;;;19.13;12.50;;;;;;;5.09;69.85;98533.81;5036350;28;20049;-88
2020/12/06 00:21:26;;;;;;;19.23;12.50;;;;;;;5.09;69.64;98526.81;5038219;28;20046;-87
2020/12/06 00:23:53;;;;;;;21.08;12.75;;;;;;;5.07;69.81;98512.16;5035266;28;20061;-88
2020/12/06 00:26:24;;;;;;;20.42;11.77;;;;;;;5.06;69.09;98510.47;5037677;28;20054;-87
2020/12/06 00:28:55;;;;;;;18.88;12.15;;;;;;;5.02;69.18;98507.22;5037873;28;20053;-87
2020/12/06 00:31:21;;;;;;;17.35;11.05;;;;;;;5.02;69.75;98504.59;5036696;28;20496;-87
2020/12/06 00:33:47;;;;;;;17.63;11.80;;;;;;;5.01;69.77;98502.06;5034866;28;20049;-87
2020/12/06 00:36:17;;;;;;;19.52;12.70;;;;;;;4.98;69.48;98495.25;5037198;28;20064;-87
2020/12/06 00:38:44;;;;;;;23.65;13.20;;;;;;;4.97;69.43;98496.16;5036132;28;20049;-87
2020/12/06 00:41:12;;;;;;;19.85;12.27;;;;;;;4.95;69.64;98482.38;5037089;28;20049;-88
2020/12/06 00:43:39;;;;;;;17.60;11.68;;;;;;;4.92;69.47;98444.28;5037374;28;20057;-89
2020/12/06 00:46:05;;;;;;;15.98;10.35;;;;;;;4.89;69.31;98438.38;5037186;28;20052;-87
2020/12/06 05:45:39;;;;;;;25.80;15.95;;;;;;;4.80;71.58;98416.25;4993473;28;20129;-93
2020/12/06 05:48:06;;;;;;;28.08;16.13;;;;;;;4.82;71.73;98423.06;4993979;28;20073;-93
2020/12/06 05:50:37;;;;;;;28.50;16.75;;;;;;;4.82;72.00;98417.00;4994545;28;20054;-93
2020/12/06 05:53:03;;;;;;;25.17;15.68;;;;;;;4.83;72.14;98419.53;5025451;23;20143;-88
2020/12/06 05:55:31;;;;;;;25.45;15.98;;;;;;;4.82;72.22;98407.44;4957313;29;20054;-90
2020/12/06 05:58:01;;;;;;;24.65;15.82;;;;;;;4.83;72.20;98403.06;4957190;29;20461;-90
2020/12/06 06:00:29;;;;;;;25.08;15.48;;;;;;;4.86;72.06;98399.44;4957540;29;20055;-88
2020/12/06 06:02:58;;;;;;;27.15;16.17;;;;;;;4.86;72.01;98394.25;4955460;28;20520;-87
2020/12/06 06:05:25;;;;;;;24.90;15.90;;;;;;;4.89;72.26;98404.47;4957939;29;20052;-85
2020/12/06 06:07:59;;;;;;;27.77;16.58;;;;;;;4.88;71.96;98394.97;4957466;29;20062;-88
2020/12/06 06:10:33;;;;;;;25.27;15.32;;;;;;;4.88;72.05;98398.44;4956451;29;20050;-88
2020/12/06 06:13:02;;;;;;;25.85;16.15;;;;;;;4.91;72.09;98400.03;4956127;29;20051;-89
2020/12/06 06:15:30;;;;;;;27.42;16.65;;;;;;;4.91;72.18;98400.03;4957505;28;20051;-90
2020/12/06 06:17:58;;;;;;;26.35;15.70;;;;;;;4.91;72.32;98400.88;4957907;28;20098;-87
2020/12/06 06:20:29;;;;;;;26.90;16.25;;;;;;;4.91;72.09;98403.50;4957825;28;20051;-87
2020/12/06 06:22:59;;;;;;;27.45;15.98;;;;;;;4.93;72.25;98400.78;4955897;29;20050;-87
2020/12/06 06:25:29;;;;;;;26.70;16.13;;;;;;;4.94;72.53;98402.47;4957926;29;20460;-89
2020/12/06 06:27:57;;;;;;;26.05;15.60;;;;;;;4.95;72.44;98391.13;4956340;28;20059;-89
2020/12/06 06:30:26;;;;;;;26.38;16.25;;;;;;;4.97;72.35;98389.25;4958879;28;20058;-87
2020/12/06 06:32:53;;;;;;;23.42;15.45;;;;;;;4.99;72.50;98382.19;4956988;28;20454;-86
2020/12/06 06:35:22;;;;;;;24.55;15.50;;;;;;;5.00;72.33;98381.25;4956888;28;20055;-86
2020/12/06 06:37:48;;;;;;;26.13;16.15;;;;;;;5.02;72.49;98387.25;4956918;28;20051;-87
2020/12/06 06:40:26;;;;;;;26.50;16.58;;;;;;;5.01;72.35;98387.31;4957729;28;20051;-86
2020/12/06 06:42:53;;;;;;;24.35;15.57;;;;;;;5.06;72.57;98393.97;4956114;29;20055;-89
2020/12/06 06:45:20;;;;;;;27.52;15.85;;;;;;;5.08;72.35;98399.94;4957057;28;20051;-88
2020/12/06 06:47:47;;;;;;;27.77;16.70;;;;;;;5.10;72.66;98394.63;4955773;29;20426;-86
2020/12/06 06:50:15;;;;;;;25.75;16.08;;;;;;;5.12;72.69;98395.38;4955756;29;20062;-87
2020/12/06 06:52:43;;;;;;;29.33;16.45;;;;;;;5.15;72.88;98395.19;4955223;28;20047;-90
2020/12/06 06:55:11;;;;;;;27.63;16.25;;;;;;;5.19;72.53;98388.88;4956396;28;20136;-90
2020/12/06 06:57:40;;;;;;;25.30;16.00;;;;;;;5.19;72.44;98383.66;4955466;29;20063;-87
2020/12/06 07:00:12;;;;;;;25.42;16.42;;;;;;;5.22;72.52;98370.47;4955935;29;20130;-87
2020/12/06 07:02:41;;;;;;;25.90;15.52;;;;;;;5.24;72.84;98378.19;4940473;28;20078;-89
2020/12/06 07:05:19;;;;;;;25.27;15.68;;;;;;;5.27;72.67;98385.81;4955221;29;20055;-90
2020/12/06 07:07:47;;;;;;;22.75;14.98;;;;;;;5.27;72.55;98383.22;4957856;28;20063;-87
2020/12/06 07:10:15;;;;;;;25.98;16.58;;;;;;;5.28;72.59;98382.31;4954893;29;20513;-88
2020/12/06 07:12:50;;;;;;;28.13;16.33;;;;;;;5.27;72.47;98378.00;4957016;28;20075;-90
2020/12/06 07:15:22;;;;;;;27.55;16.38;;;;;;;5.29;72.55;98370.94;4956886;28;20494;-87
2020/12/06 07:17:53;;;;;;;30.10;17.53;;;;;;;5.33;72.72;98368.97;4955867;29;20055;-86
2020/12/06 07:20:20;;;;;;;26.27;16.25;;;;;;;5.35;72.67;98369.75;4956740;28;20052;-89
2020/12/06 07:22:47;;;;;;;30.00;18.05;;;;;;;5.37;72.70;98362.66;4955506;28;20043;-90
2020/12/06 07:25:15;;;;;;;29.48;16.90;;;;;;;5.39;72.57;98355.59;4955080;29;20062;-87
2020/12/06 07:27:41;;;;;;;27.27;17.40;;;;;;;5.39;72.62;98346.91;4955452;29;20452;-88
2020/12/06 07:30:10;;;;;;;27.60;16.67;;;;;;;5.40;72.47;98359.88;4957332;28;20058;-89
2020/12/06 07:32:37;;;;;;;28.40;17.90;;;;;;;5.43;72.78;98362.31;4955925;28;20058;-89
2020/12/06 07:35:05;;;;;;;27.05;17.30;;;;;;;5.45;72.70;98370.88;4956462;28;20055;-88
2020/12/06 07:37:32;;;;;;;29.58;18.13;;;;;;;5.48;72.90;98369.88;4956017;28;20066;-88
2020/12/06 07:39:58;;;;;;;28.33;17.13;;;;;;;5.50;72.68;98361.94;4958937;29;20061;-90
2020/12/06 07:42:27;;;;;;;27.20;15.98;;;;;;;5.52;72.87;98373.13;4959721;28;20472;-86
2020/12/06 07:44:58;;;;;;;27.38;16.52;;;;;;;5.54;72.50;98382.56;4958867;29;20432;-90
2020/12/06 07:47:25;;;;;;;25.33;15.77;;;;;;;5.57;72.98;98377.16;4960120;28;20051;-86
2020/12/06 07:49:56;;;;;;;25.17;16.00;;;;;;;5.58;72.49;98373.59;4960858;28;20066;-88
2020/12/06 07:52:23;;;;;;;27.40;15.25;;;;;;;5.60;72.50;98366.53;4957765;28;20070;-87
2020/12/06 07:55:07;;;;;;;23.02;15.27;;;;;;;5.56;72.48;98356.34;4959958;28;20054;-86
2020/12/06 07:57:36;;;;;;;;;;;;;;;5.61;72.33;98360.38;4959758;29;20057;-87
2020/12/06 08:00:07;;;;;;;26.02;15.13;;;;;;;5.64;72.64;98375.00;4958312;29;19923;-91
2020/12/06 08:02:36;;;;;;;28.10;15.68;;;;;;;5.66;72.82;98380.16;4958990;28;20047;-88
2020/12/06 08:05:05;;;;;;;25.58;17.05;;;;;;;5.65;72.67;98362.81;4959765;28;20047;-90
2020/12/06 08:07:38;;;;;;;27.95;18.10;;;;;;;5.65;72.42;98368.03;4957863;29;20054;-90
2020/12/06 08:10:08;;;;;;;30.50;17.55;;;;;;;5.67;72.71;98369.63;4957581;29;20062;-88
2020/12/06 08:12:45;;;;;;;27.58;17.63;;;;;;;5.68;72.65;98370.47;4958083;28;20087;-90
2020/12/06 08:15:11;;;;;;;27.80;17.33;;;;;;;5.71;72.90;98370.28;4960532;28;20055;-90
2020/12/06 08:17:48;;;;;;;33.75;18.80;;;;;;;5.68;72.54;98368.69;4957388;29;20047;-88
2020/12/06 08:20:20;;;;;;;28.73;17.90;;;;;;;5.71;72.62;98370.28;4959009;29;20136;-89
2020/12/06 08:22:59;;;;;;;28.67;17.65;;;;;;;5.68;72.37;98376.53;4958007;29;20052;-88
2020/12/06 08:25:45;;;;;;;30.23;18.27;;;;;;;5.70;72.50;98385.13;4958771;29;20075;-87
2020/12/06 08:28:18;;;;;;;30.10;18.48;;;;;;;5.74;72.72;98383.16;4958811;29;20059;-90
2020/12/06 08:30:44;;;;;;;27.95;17.40;;;;;;;5.74;72.70;98391.84;4959442;28;20059;-88
2020/12/06 08:33:10;;;;;;;31.02;18.75;;;;;;;5.76;72.77;98394.38;4957864;28;20430;-90
2020/12/06 08:35:42;;;;;;;27.70;17.80;;;;;;;5.76;72.64;98393.50;4958698;29;20055;-88
2020/12/06 08:38:23;;;;;;;31.42;18.42;;;;;;;5.74;72.56;98388.38;4958714;29;20062;-90
2020/12/06 08:40:59;;;;;;;29.90;18.65;;;;;;;5.76;72.69;98385.69;4959084;28;20055;-89
2020/12/06 08:43:55;;;;;;;30.88;18.60;;;;;;;5.76;72.65;98381.31;4959527;28;20498;-87
2020/12/06 08:46:23;;;;;;;30.33;17.48;;;;;;;5.80;73.01;98369.72;4958679;29;20131;-91
2020/12/06 08:48:53;;;;;;;30.73;18.63;;;;;;;5.81;72.86;98366.19;4956995;29;20058;-90
2020/12/06 08:51:34;;;;;;;29.90;17.85;;;;;;;5.83;72.64;98363.50;4958841;28;20062;-91
2020/12/06 08:54:03;;;;;;;33.85;18.33;;;;;;;5.87;73.12;98355.38;4957953;28;20051;-88
2020/12/06 08:56:33;;;;;;;31.70;19.92;;;;;;;5.90;73.09;98346.50;4957053;29;20055;-88
2020/12/06 08:59:03;;;;;;;27.77;18.13;;;;;;;5.92;72.90;98346.41;4957629;29;20047;-91
2020/12/06 09:01:30;;;;;;;25.02;17.67;;;;;;;5.95;73.07;98354.06;4957865;28;20058;-91
2020/12/06 09:03:57;;;;;;;30.05;18.33;;;;;;;5.97;73.01;98365.25;4956785;28;20044;-88
2020/12/06 09:06:23;;;;;;;31.00;19.48;;;;;;;5.99;73.12;98364.22;4958127;28;20062;-89
2020/12/06 09:08:50;;;;;;;29.15;18.60;;;;;;;6.02;73.02;98351.94;4958102;28;20050;-90
2020/12/06 09:11:17;;;;;;;31.70;18.90;;;;;;;6.04;72.95;98345.72;4957389;29;20043;-87
2020/12/06 09:13:45;;;;;;;29.92;19.85;;;;;;;6.07;72.86;98344.69;4956265;29;20513;-91
2020/12/06 09:16:11;;;;;;;32.55;18.42;;;;;;;6.08;72.86;98344.59;4957595;29;20058;-87
2020/12/06 09:18:41;;;;;;;27.25;17.40;;;;;;;6.10;72.63;98345.31;4956913;29;20058;-88
2020/12/06 09:21:08;;;;;;;28.98;18.48;;;;;;;6.12;72.76;98343.47;4957104;29;20421;-89
2020/12/06 09:23:36;;;;;;;33.83;19.55;;;;;;;6.13;72.81;98339.91;4956485;28;20058;-90
2020/12/06 09:26:04;;;;;;;34.10;20.17;;;;;;;6.14;72.75;98325.09;4957910;29;20055;-87
2020/12/06 09:28:31;;;;;;;29.48;18.45;;;;;;;6.15;72.88;98316.31;4956738;29;20055;-91
2020/12/06 09:30:58;;;;;;;32.78;19.95;;;;;;;6.16;72.58;98317.16;4956712;29;20082;-88
2020/12/06 09:33:24;;;;;;;29.60;18.45;;;;;;;6.16;72.82;98311.94;4958514;28;20548;-89
2020/12/06 09:35:51;;;;;;;28.63;18.40;;;;;;;6.16;72.99;98302.31;4958071;28;20060;-89
2020/12/06 09:38:17;;;;;;;31.45;19.30;;;;;;;6.17;72.46;98290.09;4957161;29;20061;-88
2020/12/06 09:40:44;;;;;;;28.50;18.23;;;;;;;6.17;72.97;98287.47;4958963;28;20529;-87
2020/12/06 09:43:11;;;;;;;28.35;18.40;;;;;;;6.19;72.81;98288.22;4955599;29;20051;-89
2020/12/06 09:45:38;;;;;;;30.83;19.65;;;;;;;6.19;73.17;98288.22;4957940;28;20055;-87
2020/12/06 09:48:04;;;;;;;30.73;19.73;;;;;;;6.20;73.14;98284.69;4957821;29;20057;-92
2020/12/06 09:50:30;;;;;;;33.70;20.13;;;;;;;6.21;73.13;98276.72;4957518;28;20473;-87
2020/12/06 09:52:56;;;;;;;31.25;19.40;;;;;;;6.23;72.98;98267.03;4956217;28;20051;-89
2020/12/06 09:55:24;;;;;;;30.80;19.98;;;;;;;6.26;72.89;98263.38;4957386;28;20066;-89
2020/12/06 09:57:51;;;;;;;31.45;19.38;;;;;;;6.28;73.14;98276.34;4957380;29;20059;-90
2020/12/06 10:00:17;;;;;;;30.85;20.40;;;;;;;6.30;73.13;98277.94;4956943;29;20051;-88
2020/12/06 10:02:44;;;;;;;29.98;20.33;;;;;;;6.32;73.40;98273.44;4957364;28;20047;-89
2020/12/06 10:05:11;;;;;;;35.03;20.35;;;;;;;6.34;73.36;98268.97;4956847;29;20055;-91
2020/12/06 10:07:38;;;;;;;34.35;19.15;;;;;;;6.37;73.05;98279.22;4956224;29;20077;-91
2020/12/06 10:10:06;;;;;;;30.15;18.75;;;;;;;6.39;72.88;98281.72;4958389;28;20047;-88
2020/12/06 10:12:33;;;;;;;33.05;20.80;;;;;;;6.40;72.73;98283.41;4957440;28;20043;-90
2020/12/06 10:15:01;;;;;;;33.22;20.15;;;;;;;6.43;72.91;98280.59;4957699;29;20453;-90
2020/12/06 10:17:28;;;;;;;31.25;19.27;;;;;;;6.44;72.87;98284.91;4956718;29;20514;-87
2020/12/06 10:19:55;;;;;;;31.50;18.90;;;;;;;6.46;72.97;98287.38;4956099;29;20051;-87
2020/12/06 10:22:21;;;;;;;31.25;19.10;;;;;;;6.46;72.96;98292.63;4956949;28;20525;-89
2020/12/06 10:25:03;;;;;;;34.15;19.00;;;;;;;6.48;72.87;98296.84;4956232;29;20082;-86
2020/12/06 10:27:29;;;;;;;27.30;17.65;;;;;;;6.47;72.73;98295.13;4955460;29;20082;-86
2020/12/06 10:29:55;;;;;;;30.13;18.85;;;;;;;6.47;72.72;98283.88;4957205;29;20079;-88
2020/12/06 10:32:22;;;;;;;33.13;19.13;;;;;;;6.46;72.60;98290.00;4955744;28;20047;-87
2020/12/06 10:34:49;;;;;;;33.25;19.55;;;;;;;6.44;72.58;98284.06;4957472;29;20055;-91
2020/12/06 10:37:15;;;;;;;29.92;18.80;;;;;;;6.44;73.01;98273.59;4956378;29;20051;-87
2020/12/06 10:39:45;;;;;;;28.95;18.83;;;;;;;6.45;72.93;98272.66;4957607;28;20114;-90
2020/12/06 10:42:12;;;;;;;33.20;19.92;;;;;;;6.44;72.78;98261.38;4957280;29;20487;-89
2020/12/06 10:44:38;;;;;;;27.90;18.50;;;;;;;6.45;73.05;98255.19;4956082;28;20059;-86
2020/12/06 10:47:07;;;;;;;30.50;19.75;;;;;;;6.46;72.91;98248.19;4956351;29;20051;-86
2020/12/06 10:49:40;;;;;;;28.90;19.42;;;;;;;6.47;73.29;98253.31;4957656;29;20051;-87
2020/12/06 10:52:10;;;;;;;33.80;21.08;;;;;;;6.48;73.21;98238.47;4955979;29;20057;-91
2020/12/06 10:54:37;;;;;;;31.83;20.42;;;;;;;6.51;73.30;98230.44;4956403;28;20453;-89
2020/12/06 10:57:07;;;;;;;34.28;20.48;;;;;;;6.52;72.92;98239.97;4955893;29;20074;-87
2020/12/06 10:59:37;;;;;;;31.27;20.08;;;;;;;6.56;72.75;98224.91;4955287;29;20047;-87
2020/12/06 11:02:03;;;;;;;36.22;20.90;;;;;;;6.59;73.22;98232.56;4956766;29;20051;-89
2020/12/06 11:04:30;;;;;;;31.17;21.45;;;;;;;6.61;73.21;98226.28;4955893;28;20059;-88
2020/12/06 11:06:57;;;;;;;32.75;19.83;;;;;;;6.63;73.10;98224.44;4957878;28;20058;-87
2020/12/06 11:09:25;;;;;;;31.05;20.52;;;;;;;6.67;73.14;98213.75;4955891;29;20059;-88
2020/12/06 11:11:51;;;;;;;31.60;21.38;;;;;;;6.70;73.01;98210.94;4955762;29;20047;-87
2020/12/06 11:14:18;;;;;;;31.58;21.15;;;;;;;6.71;72.74;98197.75;4958256;28;20051;-89
2020/12/06 11:16:44;;;;;;;29.95;20.15;;;;;;;6.72;72.69;98198.56;4960041;28;20137;-91
2020/12/06 11:19:10;;;;;;;32.72;20.95;;;;;;;6.73;73.05;98200.28;4960034;28;20059;-89
2020/12/06 11:21:36;;;;;;;32.67;21.92;;;;;;;6.76;72.84;98197.44;4959128;29;20057;-88
2020/12/06 11:24:03;;;;;;;32.47;21.75;;;;;;;6.76;72.73;98205.28;4958545;28;20055;-91
2020/12/06 11:26:29;;;;;;;34.75;21.17;;;;;;;6.76;72.66;98205.28;4958992;29;20058;-87
2020/12/06 11:28:55;;;;;;;32.25;21.25;;;;;;;6.77;72.68;98201.75;4960601;29;20058;-88
2020/12/06 11:31:21;;;;;;;32.72;21.02;;;;;;;6.77;72.62;98212.22;4960477;28;20059;-90
2020/12/06 11:33:48;;;;;;;31.80;20.50;;;;;;;6.77;72.48;98212.22;4958579;28;20066;-89
2020/12/06 11:36:15;;;;;;;34.75;20.50;;;;;;;6.79;72.56;98212.94;4959584;29;20502;-87
2020/12/06 11:38:42;;;;;;;32.92;21.08;;;;;;;6.80;72.65;98211.16;4959919;28;20051;-91
2020/12/06 11:41:09;;;;;;;28.75;19.63;;;;;;;6.80;72.63;98212.00;4959826;29;20114;-87
2020/12/06 11:43:35;;;;;;;35.03;22.50;;;;;;;6.80;72.49;98211.16;4958944;29;20047;-88
2020/12/06 11:46:01;;;;;;;33.78;21.05;;;;;;;6.81;72.54;98208.47;4958645;29;20055;-87
2020/12/06 11:48:28;;;;;;;36.63;22.60;;;;;;;6.81;72.66;98207.59;4958423;29;20603;-89
2020/12/06 11:50:54;;;;;;;40.67;21.25;;;;;;;6.81;72.51;98202.38;4960294;28;20062;-88
2020/12/06 12:05:04;;;;;;;31.73;18.80;;;;;;;6.86;72.61;98177.59;4999857;23;20222;-87
2020/12/06 12:07:31;;;;;;;28.95;20.23;;;;;;;6.87;72.87;98181.03;4958463;29;20051;-87
2020/12/06 12:09:57;;;;;;;38.25;22.85;;;;;;;6.86;72.60;98185.44;4959896;29;20058;-86
2020/12/06 12:12:24;;;;;;;37.30;24.48;;;;;;;6.87;72.32;98196.72;4959631;29;20078;-88
2020/12/06 12:14:51;;;;;;;36.50;23.50;;;;;;;6.85;72.53;98189.00;4962085;28;20489;-88
2020/12/06 12:17:18;;;;;;;37.35;24.38;;;;;;;6.85;72.27;98190.78;4960538;29;20055;-88
2020/12/06 12:19:44;;;;;;;38.58;23.60;;;;;;;6.82;72.41;98183.97;4962153;29;20070;-89
2020/12/06 12:22:10;;;;;;;36.45;23.60;;;;;;;6.82;72.31;98178.75;4962460;28;20461;-88
2020/12/06 12:24:37;;;;;;;37.63;22.52;;;;;;;6.81;72.31;98161.38;4960201;28;20458;-91
2020/12/06 12:27:04;;;;;;;38.33;22.77;;;;;;;6.80;72.41;98158.88;4959225;29;20055;-88
2020/12/06 12:29:32;;;;;;;34.42;22.60;;;;;;;6.79;72.24;98160.63;4962000;28;20051;-90
2020/12/06 12:31:59;;;;;;;40.80;23.63;;;;;;;6.78;72.64;98158.97;4959019;29;20561;-89
2020/12/06 12:34:25;;;;;;;36.85;23.27;;;;;;;6.78;72.17;98164.19;4962319;29;20145;-86
2020/12/06 12:36:53;;;;;;;40.40;23.48;;;;;;;6.76;72.31;98160.81;4962440;28;20059;-87
2020/12/06 12:39:20;;;;;;;42.17;24.60;;;;;;;6.76;72.94;98153.84;4960806;29;20047;-89
2020/12/06 12:41:46;;;;;;;37.60;22.55;;;;;;;6.78;72.70;98156.34;4962077;28;20071;-88
2020/12/06 12:44:12;;;;;;;36.72;23.60;;;;;;;6.77;72.74;98159.91;4960451;29;20419;-88
2020/12/06 12:46:38;;;;;;;50.28;26.10;;;;;;;6.76;72.52;98148.59;4960807;28;20065;-91
2020/12/06 12:49:04;;;;;;;43.05;25.65;;;;;;;6.78;72.76;98151.13;4960604;28;20055;-88
2020/12/06 12:51:31;;;;;;;37.58;23.88;;;;;;;6.78;72.65;98141.47;4958892;28;20058;-86
2020/12/06 12:53:59;;;;;;;44.17;24.65;;;;;;;6.78;72.37;98133.63;4958391;29;20049;-88
2020/12/06 12:56:27;;;;;;;43.42;24.88;;;;;;;6.78;72.70;98140.66;4960175;28;20610;-90
2020/12/06 12:58:53;;;;;;;42.28;25.63;;;;;;;6.79;72.50;98142.31;4958334;29;20050;-88
2020/12/06 13:01:21;;;;;;;44.70;26.13;;;;;;;6.77;72.52;98139.00;4960114;29;20066;-90
2020/12/06 13:03:47;;;;;;;43.05;25.85;;;;;;;6.77;72.63;98145.03;4959728;29;20058;-88
2020/12/06 13:06:16;;;;;;;46.22;25.38;;;;;;;6.77;72.85;98146.84;4961587;28;20079;-86
2020/12/06 13:08:42;;;;;;;42.10;24.27;;;;;;;6.76;72.45;98148.59;4959925;29;20171;-86
2020/12/06 13:11:12;;;;;;;45.60;26.67;;;;;;;6.72;72.21;98149.75;4958835;29;20110;-86
2020/12/06 13:13:38;;;;;;;47.47;25.88;;;;;;;6.75;72.50;98161.78;4959227;29;20413;-89
2020/12/06 13:16:05;;;;;;;48.80;25.23;;;;;;;6.74;72.56;98166.19;4961539;28;20055;-89
2020/12/06 13:18:31;;;;;;;46.88;26.55;;;;;;;6.73;72.56;98163.66;4959179;29;20516;-88
2020/12/06 13:20:57;;;;;;;43.80;26.40;;;;;;;6.72;72.47;98165.44;4959503;29;20051;-87
2020/12/06 13:23:25;;;;;;;40.58;24.80;;;;;;;6.73;72.78;98166.28;4961615;29;20055;-90
2020/12/06 13:25:52;;;;;;;49.58;26.92;;;;;;;6.72;72.44;98173.28;4956650;28;20047;-89
2020/12/06 13:28:19;;;;;;;43.08;24.83;;;;;;;6.73;72.34;98176.75;4959764;29;20517;-88
2020/12/06 13:30:45;;;;;;;49.85;25.70;;;;;;;6.73;72.77;98171.50;4957871;29;20086;-90
2020/12/06 13:33:12;;;;;;;42.90;25.85;;;;;;;6.72;72.63;98178.50;4957224;29;20048;-91
2020/12/06 13:35:39;;;;;;;44.30;26.05;;;;;;;6.72;72.64;98170.66;4956769;28;20047;-88
2020/12/06 13:38:06;;;;;;;44.50;25.52;;;;;;;6.73;72.87;98153.22;4958655;28;20055;-88
2020/12/06 13:40:32;;;;;;;47.20;27.40;;;;;;;6.72;72.44;98147.13;4959468;29;20075;-91
2020/12/06 13:42:59;;;;;;;42.95;24.98;;;;;;;6.74;72.75;98154.88;4958516;28;20047;-91
2020/12/06 13:45:25;;;;;;;45.88;26.88;;;;;;;6.76;72.76;98158.22;4959263;28;20051;-87
2020/12/06 13:47:52;;;;;;;41.60;25.38;;;;;;;6.76;72.62;98158.22;4958812;29;20065;-90
2020/12/06 13:50:18;;;;;;;46.00;27.15;;;;;;;6.74;72.32;98158.34;4962609;29;20051;-90
2020/12/06 13:52:45;;;;;;;47.10;27.23;;;;;;;6.73;72.56;98159.25;4958277;29;20097;-88
2020/12/06 13:55:12;;;;;;;43.88;26.05;;;;;;;6.71;72.17;98163.78;4961727;28;20417;-87
2020/12/06 13:57:38;;;;;;;45.40;26.90;;;;;;;6.71;72.66;98149.84;4959887;28;20055;-90
2020/12/06 14:00:07;;;;;;;46.40;26.08;;;;;;;6.70;72.29;98156.03;4960448;28;20055;-93
2020/12/06 14:02:33;;;;;;;42.50;25.85;;;;;;;6.72;72.42;98161.97;4960148;29;20051;-91
2020/12/06 14:04:59;;;;;;;46.03;26.98;;;;;;;6.72;72.48;98156.75;4961125;28;20051;-90
2020/12/06 14:07:26;;;;;;;48.47;28.40;;;;;;;6.73;72.57;98153.22;4961225;29;20062;-91
2020/12/06 14:09:52;;;;;;;45.90;26.40;;;;;;;6.73;72.39;98155.81;4959352;28;20066;-87
2020/12/06 14:12:18;;;;;;;45.75;25.73;;;;;;;6.74;72.51;98157.50;4958498;29;20047;-88
2020/12/06 14:14:45;;;;;;;49.20;27.05;;;;;;;6.74;72.54;98160.09;4959787;28;20065;-90
2020/12/06 14:17:14;;;;;;;47.03;26.48;;;;;;;6.74;72.50;98160.09;4958441;29;20055;-90
2020/12/06 14:19:41;;;;;;;47.45;27.45;;;;;;;6.73;72.44;98154.03;4958696;29;20055;-88
2020/12/06 14:22:07;;;;;;;50.15;26.50;;;;;;;6.74;72.75;98154.88;4958192;29;20055;-91
2020/12/06 14:24:34;;;;;;;45.30;26.98;;;;;;;6.73;72.66;98161.88;4958606;28;20055;-88
2020/12/06 14:27:04;;;;;;;45.97;27.48;;;;;;;6.75;72.43;98161.78;4959326;29;20054;-91
2020/12/06 14:29:31;;;;;;;47.50;26.35;;;;;;;6.75;72.61;98159.16;4958994;29;20054;-88
2020/12/06 14:31:57;;;;;;;44.47;26.35;;;;;;;6.76;72.50;98164.28;4958542;29;20057;-88
2020/12/06 14:34:24;;;;;;;42.38;25.27;;;;;;;6.78;72.53;98166.81;4957445;29;20054;-88
2020/12/06 14:36:54;;;;;;;43.35;26.52;;;;;;;6.78;72.57;98153.72;4960896;28;20073;-88
2020/12/06 14:39:22;;;;;;;49.28;27.80;;;;;;;6.81;73.01;98157.91;4959915;29;20069;-87
2020/12/06 14:41:51;;;;;;;39.78;24.65;;;;;;;6.82;72.53;98157.81;4960426;29;20066;-88
2020/12/06 14:44:19;;;;;;;45.95;25.70;;;;;;;6.85;72.79;98165.47;4961159;28;20047;-87
2020/12/06 14:46:45;;;;;;;41.70;25.35;;;;;;;6.87;72.36;98157.50;4958864;28;20059;-88
2020/12/06 14:49:11;;;;;;;42.60;25.67;;;;;;;6.89;72.54;98158.25;4962952;28;20078;-88
2020/12/06 14:51:39;;;;;;;47.53;25.92;;;;;;;6.90;72.62;98159.91;4963288;29;20550;-90
2020/12/06 14:54:05;;;;;;;46.15;26.58;;;;;;;6.89;72.30;98150.41;4963242;29;20498;-88
2020/12/06 14:56:31;;;;;;;51.15;29.20;;;;;;;6.89;72.53;98151.22;4961461;28;20059;-88
2020/12/06 14:58:58;;;;;;;54.45;32.25;;;;;;;6.90;72.25;98152.91;4964117;28;20133;-87
2020/12/06 15:01:24;;;;;;;58.17;32.85;;;;;;;6.91;72.51;98161.56;4961488;29;20059;-89
2020/12/06 15:03:52;;;;;;;68.15;35.30;;;;;;;6.90;72.09;98166.00;4962602;29;20059;-88
2020/12/06 15:06:19;;;;;;;63.25;33.63;;;;;;;6.91;72.38;98165.03;4963873;28;20141;-88
2020/12/06 15:08:45;;;;;;;61.80;33.38;;;;;;;6.91;72.52;98166.81;4963229;28;20544;-91
2020/12/06 15:11:13;;;;;;;61.80;34.25;;;;;;;6.93;72.51;98158.84;4962674;29;20051;-91
2020/12/06 15:13:39;;;;;;;58.05;32.78;;;;;;;6.93;72.32;98167.56;4960696;29;20073;-90
2020/12/06 15:16:05;;;;;;;58.10;31.52;;;;;;;6.95;72.13;98167.47;4962850;28;20051;-91
2020/12/06 15:18:32;;;;;;;57.72;32.35;;;;;;;6.97;72.27;98170.78;4962490;29;20071;-88
2020/12/06 15:21:00;;;;;;;54.85;29.90;;;;;;;6.96;71.95;98161.28;4964765;28;20066;-92
2020/12/06 15:23:27;;;;;;;50.80;28.83;;;;;;;6.97;72.33;98153.31;4961906;28;20066;-87
2020/12/06 15:25:55;;;;;;;51.13;28.58;;;;;;;6.97;72.45;98148.09;4960773;28;20047;-88
2020/12/06 15:28:23;;;;;;;48.90;28.45;;;;;;;6.99;72.26;98148.00;4961050;29;20048;-87
2020/12/06 15:30:49;;;;;;;44.42;24.73;;;;;;;7.00;72.08;98147.88;4962276;29;20502;-88
2020/12/06 15:33:15;;;;;;;48.72;27.35;;;;;;;6.99;72.37;98142.75;4960917;28;20065;-87
2020/12/06 15:35:41;;;;;;;46.45;26.65;;;;;;;7.00;72.46;98136.59;4960344;28;20051;-89
2020/12/06 15:38:07;;;;;;;50.15;27.60;;;;;;;7.01;72.19;98130.41;4962067;29;20051;-87
2020/12/06 15:40:35;;;;;;;48.95;28.73;;;;;;;7.02;72.35;98126.84;4963829;28;20047;-87
2020/12/06 15:43:02;;;;;;;49.10;29.73;;;;;;;7.02;72.14;98100.66;4962278;29;20047;-88
2020/12/06 15:45:30;;;;;;;50.03;29.17;;;;;;;7.03;72.20;98112.84;4960785;28;20055;-91
2020/12/06 15:47:57;;;;;;;52.13;30.10;;;;;;;7.05;72.39;98121.41;4963035;29;20050;-88
2020/12/06 15:50:24;;;;;;;49.50;29.23;;;;;;;7.03;72.04;98116.25;4960867;29;20066;-88
2020/12/06 15:52:51;;;;;;;52.80;29.20;;;;;;;7.02;71.87;98100.66;4962779;28;20386;-91
2020/12/06 15:55:18;;;;;;;52.45;29.38;;;;;;;7.03;72.37;98107.59;4961433;28;20051;-90
2020/12/06 15:57:45;;;;;;;51.55;30.00;;;;;;;7.01;71.92;98118.16;4961630;28;20051;-90
2020/12/06 16:00:12;;;;;;;51.50;29.83;;;;;;;6.98;71.75;98126.22;4963182;28;20051;-90
2020/12/06 16:02:38;;;;;;;54.45;29.98;;;;;;;6.99;72.10;98127.06;4963515;28;20513;-90
2020/12/06 16:05:05;;;;;;;56.45;30.80;;;;;;;6.96;72.29;98135.97;4963383;28;20055;-89
2020/12/06 16:07:31;;;;;;;55.17;30.08;;;;;;;6.95;72.41;98136.06;4963922;28;20053;-88
2020/12/06 16:09:58;;;;;;;57.67;31.45;;;;;;;6.94;72.32;98136.97;4963300;29;20055;-90
2020/12/06 16:12:26;;;;;;;55.25;30.73;;;;;;;6.94;72.09;98142.22;4960074;29;20051;-91
2020/12/06 16:14:53;;;;;;;59.92;31.00;;;;;;;6.94;72.22;98139.59;4960481;28;20051;-88
2020/12/06 16:17:20;;;;;;;60.75;32.95;;;;;;;6.93;72.19;98145.78;4958924;29;20055;-88
2020/12/06 16:19:46;;;;;;;60.42;32.45;;;;;;;6.93;72.18;98143.16;4960939;29;20062;-88
2020/12/06 16:22:13;;;;;;;51.22;27.58;;;;;;;6.94;71.99;98147.44;4958633;29;20055;-91
2020/12/06 16:24:39;;;;;;;59.40;30.60;;;;;;;6.93;72.04;98148.41;4960162;28;20062;-87
2020/12/06 16:27:05;;;;;;;58.40;29.65;;;;;;;6.91;72.23;98144.13;4957946;29;20066;-89
2020/12/06 16:29:31;;;;;;;61.83;31.10;;;;;;;6.91;72.12;98140.66;4959818;29;20054;-88
2020/12/06 16:31:58;;;;;;;56.67;30.00;;;;;;;6.91;72.03;98143.25;4961190;28;20051;-90
2020/12/06 16:34:25;;;;;;;62.55;31.85;;;;;;;6.90;72.04;98145.06;4961382;28;20484;-89
2020/12/06 16:36:53;;;;;;;56.25;29.50;;;;;;;6.89;72.02;98148.59;4957884;28;20051;-89
2020/12/06 16:39:19;;;;;;;61.20;32.50;;;;;;;6.89;72.13;98145.97;4961560;28;20410;-89